Pendleton, Oregon
Current Conditions -  °F | °C
As of 10:53 AM on Sunday 21 Dec 2014 (Local Time) from KPDT Reporting Station
Scattered Clouds Scattered Clouds  
Wind Chill: 52°   Ceiling: Unl
Heat Index: 52°   Visibility: 10mi
Dew Point: 40°   Wind: 29mph
Humidity: 63%   Direction: 260°W
Pressure: 29.93"   Gusts: 38mph
Location:  45.67°N, 118.78°W
Report Text: KPDT 211853Z 26025G33KT 10SM SCT120 11/04 A2993 RMK AO2 PK WND 26033/1847 SLP129 T01110044
Loading
Personal Weather Stations






























Interactive Weather Map New forecast layout! Learn more

10-Day Weather Forecast

Advertisements
Track Severe Weather on mobile